createdAt,value
2018-10-03T00:03:15.444Z,18.27
2018-10-03T00:07:17.764Z,18.70
2018-10-03T00:11:20.057Z,18.33
2018-10-03T00:15:22.389Z,17.83
2018-10-03T00:19:24.819Z,17.10
2018-10-03T00:23:27.085Z,18.37
2018-10-03T00:27:29.381Z,16.97
2018-10-03T00:31:31.678Z,18.37
2018-10-03T00:35:33.959Z,16.03
2018-10-03T00:39:36.249Z,15.90
2018-10-03T00:43:38.503Z,16.67
2018-10-03T00:47:40.807Z,15.67
2018-10-03T00:51:43.129Z,16.53
2018-10-03T00:55:45.393Z,16.87
2018-10-03T00:59:47.688Z,15.87
2018-10-03T01:03:49.996Z,14.27
2018-10-03T01:07:52.447Z,15.17
2018-10-03T01:11:54.828Z,15.73
2018-10-03T01:15:57.154Z,14.23
2018-10-03T01:20:01.434Z,14.53
2018-10-03T01:24:05.513Z,13.40
2018-10-03T01:28:08.893Z,14.53
2018-10-03T01:32:21.754Z,14.17
2018-10-03T01:36:26.156Z,15.10
2018-10-03T01:40:30.069Z,14.77
2018-10-03T01:44:33.548Z,14.67
2018-10-03T01:48:38.033Z,13.47
2018-10-03T01:52:40.703Z,13.43
2018-10-03T01:56:44.907Z,14.10
2018-10-03T02:00:47.204Z,12.90
2018-10-03T02:04:49.486Z,14.17
2018-10-03T02:08:51.891Z,13.50
2018-10-03T02:12:54.238Z,13.60
2018-10-03T02:18:26.028Z,12.73
2018-10-03T02:22:28.464Z,16.50
2018-10-03T02:26:30.862Z,14.20
2018-10-03T02:30:33.152Z,16.03
2018-10-03T02:34:35.452Z,15.80
2018-10-03T02:38:37.905Z,16.90
2018-10-03T02:42:40.241Z,14.57
2018-10-03T02:46:42.561Z,16.20
2018-10-03T02:50:44.866Z,14.43
2018-10-03T02:54:47.205Z,16.23
2018-10-03T02:58:49.517Z,15.20
2018-10-03T03:02:51.800Z,14.10
2018-10-03T03:06:54.126Z,16.40
2018-10-03T03:10:56.552Z,14.43
2018-10-03T03:14:58.930Z,13.97
2018-10-03T03:19:01.266Z,14.50
2018-10-03T03:23:03.566Z,14.40
2018-10-03T03:27:05.879Z,15.47
2018-10-03T03:31:08.126Z,14.10
2018-10-03T03:35:10.421Z,14.00
2018-10-03T03:39:12.718Z,14.73
2018-10-03T03:43:14.996Z,14.20
2018-10-03T03:47:17.291Z,16.27
2018-10-03T03:51:19.590Z,17.93
2018-10-03T03:55:21.879Z,18.73
2018-10-03T04:03:37.556Z,17.87
2018-10-03T04:07:39.893Z,19.07
2018-10-03T04:11:42.246Z,20.53
2018-10-03T04:15:44.561Z,18.20
2018-10-03T04:19:46.829Z,18.23
2018-10-03T04:23:49.118Z,18.37
2018-10-03T04:27:51.506Z,18.47
2018-10-03T04:31:53.797Z,19.53
2018-10-03T04:35:56.150Z,19.57
2018-10-03T04:39:58.476Z,21.23
2018-10-03T04:44:00.821Z,20.23
2018-10-03T04:48:03.155Z,19.97
2018-10-03T04:52:05.571Z,21.57
2018-10-03T04:56:07.882Z,19.47
2018-10-03T05:00:10.254Z,20.07
2018-10-03T05:04:12.624Z,19.23
2018-10-03T05:08:15.039Z,20.33
2018-10-03T05:12:17.375Z,18.50
2018-10-03T05:16:19.713Z,17.03
2018-10-03T05:20:22.066Z,15.70
2018-10-03T05:24:24.351Z,16.83
2018-10-03T05:28:26.636Z,16.97
2018-10-03T05:32:28.937Z,17.63
2018-10-03T05:36:31.276Z,18.07
2018-10-03T05:40:33.585Z,19.17
2018-10-03T05:44:35.860Z,20.70
2018-10-03T05:48:38.294Z,19.80
2018-10-03T05:52:40.611Z,19.93
2018-10-03T05:56:42.937Z,20.57
2018-10-03T06:00:45.266Z,22.63
2018-10-03T06:04:47.594Z,22.63
2018-10-03T06:08:49.896Z,21.77
2018-10-03T06:12:52.225Z,23.40
2018-10-03T06:16:54.547Z,19.53
2018-10-03T06:20:56.934Z,21.47
2018-10-03T06:24:59.256Z,21.00
2018-10-03T06:29:01.664Z,21.73
2018-10-03T06:33:03.984Z,19.70
2018-10-03T06:37:06.482Z,20.73
2018-10-03T06:41:08.891Z,20.47
2018-10-03T06:45:11.218Z,18.73
2018-10-03T06:49:13.574Z,18.83
2018-10-03T06:53:15.952Z,17.77
2018-10-03T06:57:18.270Z,19.40
2018-10-03T07:01:20.591Z,19.97
2018-10-03T07:05:22.934Z,18.70
2018-10-03T07:09:25.303Z,17.43
2018-10-03T07:13:27.670Z,16.93
2018-10-03T07:17:29.990Z,19.13
2018-10-03T07:21:32.345Z,16.33
2018-10-03T07:25:34.660Z,15.83
2018-10-03T07:29:37.038Z,15.37
2018-10-03T07:33:39.378Z,17.70
2018-10-03T07:37:41.724Z,13.33
2018-10-03T07:41:44.046Z,13.27
2018-10-03T07:45:46.423Z,13.47
2018-10-03T07:49:48.758Z,14.40
2018-10-03T07:53:51.085Z,14.40
2018-10-03T07:57:53.381Z,11.73
2018-10-03T08:01:56.648Z,14.27
2018-10-03T08:05:59.015Z,16.27
2018-10-03T08:10:01.451Z,12.23
2018-10-03T08:14:03.731Z,13.73
2018-10-03T08:18:06.039Z,12.37
2018-10-03T08:22:08.373Z,12.10
2018-10-03T08:26:10.733Z,10.93
2018-10-03T08:30:13.070Z,10.03
2018-10-03T08:34:15.584Z,11.87
2018-10-03T08:38:17.948Z,10.50
2018-10-03T08:42:20.355Z,12.13
2018-10-03T08:46:22.655Z,10.90
2018-10-03T08:50:24.985Z,10.20
2018-10-03T08:54:27.273Z,8.93
2018-10-03T08:58:29.851Z,10.53
2018-10-03T09:02:31.970Z,9.00
2018-10-03T09:06:34.309Z,9.17
2018-10-03T09:10:36.809Z,6.97
2018-10-03T09:14:39.084Z,8.43
2018-10-03T09:18:41.378Z,9.50
2018-10-03T09:22:43.853Z,8.63
2018-10-03T09:26:46.203Z,8.07
2018-10-03T09:30:48.514Z,8.03
2018-10-03T09:34:50.779Z,6.47
2018-10-03T09:38:53.099Z,6.07
2018-10-03T09:42:55.463Z,7.67
2018-10-03T09:46:57.773Z,5.77
2018-10-03T09:51:00.040Z,8.33
2018-10-03T09:55:02.359Z,5.93
2018-10-03T10:00:40.203Z,6.73
2018-10-03T10:04:42.623Z,6.70
2018-10-03T10:08:45.142Z,5.70
2018-10-03T10:12:47.850Z,5.50
2018-10-03T10:16:50.166Z,5.33
2018-10-03T10:20:52.511Z,5.43
2018-10-03T10:24:54.843Z,5.23
2018-10-03T10:28:57.693Z,4.97
2018-10-03T10:33:00.179Z,3.77
2018-10-03T10:37:02.463Z,3.67
2018-10-03T10:41:04.857Z,4.63
2018-10-03T10:45:07.257Z,3.77
2018-10-03T10:49:11.117Z,4.90
2018-10-03T10:53:13.455Z,3.93
2018-10-03T10:57:15.734Z,5.30
2018-10-03T11:01:18.089Z,4.37
2018-10-03T11:05:20.435Z,5.17
2018-10-03T11:09:22.781Z,4.13
2018-10-03T11:13:25.091Z,4.30
2018-10-03T11:17:27.467Z,4.30
2018-10-03T11:21:29.783Z,5.07
2018-10-03T11:25:32.103Z,4.67
2018-10-03T11:29:34.429Z,4.50
2018-10-03T11:33:36.728Z,6.27
2018-10-03T11:37:39.048Z,3.40
2018-10-03T11:41:41.721Z,3.63
2018-10-03T11:45:44.127Z,5.13
2018-10-03T11:49:46.467Z,3.37
2018-10-03T11:53:48.784Z,4.13
2018-10-03T11:57:51.088Z,5.57
2018-10-03T12:01:53.428Z,4.77
2018-10-03T12:05:55.842Z,5.67
2018-10-03T12:09:58.132Z,5.17
2018-10-03T12:14:00.456Z,4.07
2018-10-03T12:18:02.841Z,4.93
2018-10-03T12:22:05.327Z,5.53
2018-10-03T12:26:08.377Z,4.60
2018-10-03T12:30:10.737Z,6.30
2018-10-03T12:34:14.004Z,6.13
2018-10-03T12:38:16.296Z,6.33
2018-10-03T12:42:18.584Z,5.40
2018-10-03T12:46:20.922Z,7.43
2018-10-03T12:50:23.293Z,6.03
2018-10-03T12:54:25.697Z,6.83
2018-10-03T12:58:28.018Z,6.47
2018-10-03T13:02:30.506Z,4.00
2018-10-03T13:08:02.326Z,4.77
2018-10-03T13:12:05.377Z,4.60
2018-10-03T13:16:07.848Z,4.27
2018-10-03T13:20:10.232Z,4.20
2018-10-03T13:24:12.559Z,5.67
2018-10-03T13:28:14.846Z,4.90
2018-10-03T13:32:17.667Z,4.63
2018-10-03T13:36:21.042Z,5.07
2018-10-03T13:40:23.608Z,3.97
2018-10-03T13:44:25.905Z,4.57
2018-10-03T13:48:28.222Z,4.93
2018-10-03T13:52:30.521Z,5.00
2018-10-03T13:56:32.896Z,7.50
2018-10-03T14:00:35.593Z,4.20
2018-10-03T14:04:38.026Z,4.27
2018-10-03T14:08:41.193Z,4.10
2018-10-03T14:12:43.569Z,5.57
2018-10-03T14:16:45.937Z,4.07
2018-10-03T14:20:48.317Z,5.03
2018-10-03T14:24:50.687Z,4.80
2018-10-03T14:28:53.177Z,4.53
2018-10-03T14:32:55.590Z,4.27
2018-10-03T14:36:57.944Z,4.63
2018-10-03T14:41:00.247Z,4.17
2018-10-03T14:45:02.653Z,3.37
2018-10-03T14:49:05.245Z,3.80
2018-10-03T14:53:07.627Z,5.00
2018-10-03T14:57:09.955Z,4.67
2018-10-03T15:01:12.265Z,4.73
2018-10-03T15:05:14.619Z,4.47
2018-10-03T15:09:17.061Z,4.07
2018-10-03T15:13:19.379Z,5.37
2018-10-03T15:17:21.766Z,4.13
2018-10-03T15:21:24.133Z,4.17
2018-10-03T15:25:26.487Z,4.23
2018-10-03T15:29:28.822Z,5.03
2018-10-03T15:33:31.148Z,5.27
2018-10-03T15:37:33.543Z,5.57
2018-10-03T15:41:35.932Z,5.80
2018-10-03T15:45:38.250Z,5.43
2018-10-03T15:49:40.572Z,5.70
2018-10-03T15:53:42.880Z,5.40
2018-10-03T15:57:45.220Z,5.97
2018-10-03T16:01:47.520Z,7.20
2018-10-03T16:05:49.830Z,5.93
2018-10-03T16:09:52.155Z,4.50
2018-10-03T16:13:54.459Z,4.30
2018-10-03T16:17:56.830Z,4.73
2018-10-03T16:21:59.176Z,5.77
2018-10-03T16:26:01.632Z,5.30
2018-10-03T16:30:04.037Z,8.40
2018-10-03T16:34:06.382Z,5.23
2018-10-03T16:38:08.941Z,6.27
2018-10-03T16:42:11.300Z,10.43
2018-10-03T16:46:13.646Z,7.23
2018-10-03T16:50:15.995Z,8.08
2018-10-03T16:54:18.360Z,6.30
2018-10-03T16:58:20.632Z,6.83
2018-10-03T17:02:22.990Z,5.63
2018-10-03T17:06:25.325Z,6.50
2018-10-03T17:10:27.711Z,5.53
2018-10-03T17:14:33.220Z,4.93
2018-10-03T17:18:35.600Z,6.03
2018-10-03T17:22:37.962Z,6.07
2018-10-03T17:26:41.092Z,5.53
2018-10-03T17:30:43.418Z,6.60
2018-10-03T17:34:45.819Z,5.93
2018-10-03T17:38:48.178Z,8.77
2018-10-03T17:42:50.518Z,8.93
2018-10-03T17:46:54.429Z,9.00
2018-10-03T17:50:56.876Z,8.07
2018-10-03T17:54:59.848Z,8.47
2018-10-03T17:59:03.283Z,8.07
2018-10-03T18:03:10.266Z,7.50
2018-10-03T18:07:17.209Z,6.47
2018-10-03T18:11:23.719Z,7.30
2018-10-03T18:15:26.265Z,8.10
2018-10-03T18:19:28.606Z,6.93
2018-10-03T18:23:30.966Z,7.20
2018-10-03T18:27:34.324Z,7.17
2018-10-03T18:31:36.764Z,7.03
2018-10-03T18:35:39.200Z,7.57
2018-10-03T18:39:42.606Z,6.87
2018-10-03T18:43:46.093Z,6.57
2018-10-03T18:47:49.435Z,9.60
2018-10-03T18:51:53.202Z,17.27
2018-10-03T18:55:56.091Z,12.67
2018-10-03T18:59:58.924Z,14.13
2018-10-03T19:04:01.714Z,8.90
2018-10-03T19:08:13.970Z,7.73
2018-10-03T19:12:16.774Z,7.40
2018-10-03T19:16:19.300Z,14.07
2018-10-03T19:20:21.983Z,13.30
2018-10-03T19:24:24.645Z,12.13
2018-10-03T19:28:27.324Z,12.27
2018-10-03T19:32:30.241Z,11.57
2018-10-03T19:36:32.969Z,11.40
2018-10-03T19:40:35.501Z,13.13
2018-10-03T19:44:38.815Z,12.30
2018-10-03T19:48:42.108Z,18.77
2018-10-03T19:52:44.455Z,29.07
2018-10-03T19:56:47.345Z,21.03
2018-10-03T20:00:51.114Z,20.10
2018-10-03T20:04:53.668Z,17.83
2018-10-03T20:08:56.595Z,15.50
2018-10-03T20:12:59.173Z,16.80
2018-10-03T20:17:01.614Z,16.83
2018-10-03T20:21:04.091Z,16.00
2018-10-03T20:25:06.642Z,15.27
2018-10-03T20:29:08.994Z,14.90
2018-10-03T20:33:11.385Z,12.57
2018-10-03T20:37:13.789Z,9.50
2018-10-03T20:41:16.249Z,10.33
2018-10-03T20:45:18.589Z,8.80
2018-10-03T20:49:20.970Z,9.80
2018-10-03T20:53:23.398Z,12.60
2018-10-03T20:57:25.750Z,12.17
2018-10-03T21:01:28.083Z,11.10
2018-10-03T21:05:30.460Z,13.30
2018-10-03T21:09:32.803Z,15.40
2018-10-03T21:13:35.210Z,14.10
2018-10-03T21:17:37.598Z,12.73
2018-10-03T21:21:39.879Z,12.67
2018-10-03T21:25:42.728Z,11.23
2018-10-03T21:29:45.035Z,11.33
2018-10-03T21:33:47.445Z,12.70
2018-10-03T21:37:49.738Z,11.67
2018-10-03T21:41:52.089Z,13.07
2018-10-03T21:45:54.462Z,14.93
2018-10-03T21:49:56.822Z,13.97
2018-10-03T21:53:59.097Z,19.60
2018-10-03T21:58:01.435Z,22.47
2018-10-03T22:02:03.903Z,21.57
2018-10-03T22:06:06.212Z,19.33
2018-10-03T22:10:08.557Z,15.33
2018-10-03T22:14:10.931Z,13.83
2018-10-03T22:18:13.229Z,17.97
2018-10-03T22:22:15.552Z,22.53
2018-10-03T22:26:17.866Z,26.87
2018-10-03T22:30:20.297Z,24.53
2018-10-03T22:34:22.804Z,23.13
2018-10-03T22:38:25.157Z,22.37
2018-10-03T22:42:27.528Z,21.30
2018-10-03T22:46:29.912Z,23.30
2018-10-03T22:50:33.397Z,15.63
2018-10-03T22:54:36.646Z,14.00
2018-10-03T22:58:38.939Z,12.50
2018-10-03T23:02:41.284Z,16.50
2018-10-03T23:06:43.559Z,17.27
2018-10-03T23:10:45.888Z,17.37
2018-10-03T23:14:48.206Z,16.23
2018-10-03T23:18:50.482Z,13.10
2018-10-03T23:22:52.806Z,12.27
2018-10-03T23:26:55.141Z,12.33
2018-10-03T23:30:57.448Z,12.43
2018-10-03T23:34:59.682Z,11.67
2018-10-03T23:39:01.969Z,11.67
2018-10-03T23:43:04.288Z,10.97
2018-10-03T23:47:06.648Z,11.20
2018-10-03T23:51:08.993Z,10.70
2018-10-03T23:55:11.438Z,10.97
2018-10-03T23:59:13.711Z,12.07
